createdAt,value
2023-02-01T00:02:12.909Z,3.50
2023-02-01T00:04:58.335Z,3.50
2023-02-01T00:07:44.046Z,3.50
2023-02-01T00:10:29.593Z,3.50
2023-02-01T00:13:14.921Z,3.40
2023-02-01T00:16:04.206Z,3.40
2023-02-01T00:18:50.751Z,3.40
2023-02-01T00:21:36.687Z,3.40
2023-02-01T00:24:22.503Z,3.30
2023-02-01T00:27:07.926Z,3.30
2023-02-01T00:29:55.134Z,3.40
2023-02-01T00:32:40.807Z,3.30
2023-02-01T00:35:26.163Z,3.40
2023-02-01T00:38:11.763Z,3.30
2023-02-01T00:41:04.928Z,3.30
2023-02-01T00:43:50.882Z,3.20
2023-02-01T00:46:36.531Z,3.30
2023-02-01T00:49:21.999Z,3.30
2023-02-01T00:52:07.409Z,3.30
2023-02-01T00:54:53.228Z,3.30
2023-02-01T00:57:38.464Z,3.30
2023-02-01T01:00:24.438Z,3.30
2023-02-01T01:03:19.113Z,3.30
2023-02-01T01:06:06.539Z,3.30
2023-02-01T01:08:53.346Z,3.40
2023-02-01T01:11:39.850Z,3.30
2023-02-01T01:14:25.643Z,3.40
2023-02-01T01:17:11.029Z,3.40
2023-02-01T01:19:59.845Z,3.30
2023-02-01T01:22:45.657Z,3.40
2023-02-01T01:25:31.518Z,3.30
2023-02-01T01:28:17.157Z,3.40
2023-02-01T01:31:02.626Z,3.30
2023-02-01T01:33:55.335Z,3.30
2023-02-01T01:36:41.073Z,3.30
2023-02-01T01:39:26.658Z,3.20
2023-02-01T01:42:14.261Z,3.10
2023-02-01T01:45:04.864Z,3.10
2023-02-01T01:47:56.057Z,3.00
2023-02-01T01:50:45.270Z,2.90
2023-02-01T01:53:41.500Z,2.70
2023-02-01T01:56:28.442Z,2.70
2023-02-01T01:59:13.909Z,2.70
2023-02-01T02:01:59.710Z,2.80
2023-02-01T02:04:45.611Z,2.80
2023-02-01T02:07:33.066Z,2.80
2023-02-01T02:10:19.162Z,2.80
2023-02-01T02:13:05.086Z,2.80
2023-02-01T02:15:59.720Z,2.80
2023-02-01T02:19:03.825Z,2.90
2023-02-01T02:21:52.614Z,2.80
2023-02-01T02:24:50.069Z,2.90
2023-02-01T02:27:45.905Z,2.90
2023-02-01T02:30:50.704Z,2.80
2023-02-01T02:33:42.562Z,2.90
2023-02-01T02:36:39.306Z,2.80
2023-02-01T02:39:37.311Z,2.80
2023-02-01T02:42:41.966Z,2.80
2023-02-01T02:46:01.663Z,2.80
2023-02-01T02:48:52.923Z,2.80
2023-02-01T02:51:57.446Z,2.70
2023-02-01T02:54:52.985Z,2.70
2023-02-01T02:57:58.934Z,2.70
2023-02-01T03:01:04.196Z,2.70
2023-02-01T03:04:09.933Z,2.70
2023-02-01T03:06:57.734Z,2.60
2023-02-01T03:09:46.995Z,2.60
2023-02-01T03:12:53.774Z,2.60
2023-02-01T03:15:46.946Z,2.60
2023-02-01T03:18:38.974Z,2.60
2023-02-01T03:21:30.703Z,2.60
2023-02-01T03:24:19.516Z,2.60
2023-02-01T03:27:05.340Z,2.60
2023-02-01T03:29:54.221Z,2.50
2023-02-01T03:33:01.774Z,2.50
2023-02-01T03:35:55.665Z,2.50
2023-02-01T03:38:43.702Z,2.50
2023-02-01T03:41:32.489Z,2.40
2023-02-01T03:44:24.427Z,2.50
2023-02-01T03:47:27.243Z,2.40
2023-02-01T03:50:16.035Z,2.40
2023-02-01T03:53:05.166Z,2.40
2023-02-01T03:55:52.609Z,2.40
2023-02-01T03:58:38.422Z,2.30
2023-02-01T04:01:24.154Z,2.40
2023-02-01T04:04:10.546Z,2.40
2023-02-01T04:06:57.473Z,2.30
2023-02-01T04:09:43.951Z,2.30
2023-02-01T04:12:29.258Z,2.30
2023-02-01T04:15:14.798Z,2.30
2023-02-01T04:18:00.630Z,2.30
2023-02-01T04:20:46.103Z,2.30
2023-02-01T04:23:32.671Z,2.30
2023-02-01T04:26:18.487Z,2.30
2023-02-01T04:29:04.059Z,2.40
2023-02-01T04:31:50.540Z,2.30
2023-02-01T04:34:35.850Z,2.40
2023-02-01T04:37:21.395Z,2.30
2023-02-01T04:40:07.619Z,2.30
2023-02-01T04:42:52.907Z,2.20
2023-02-01T04:45:38.693Z,2.20
2023-02-01T04:48:25.114Z,2.20
2023-02-01T04:51:11.072Z,2.20
2023-02-01T04:53:56.730Z,2.20
2023-02-01T04:56:42.234Z,2.20
2023-02-01T04:59:28.995Z,2.20
2023-02-01T05:02:14.420Z,2.20
2023-02-01T05:05:00.297Z,2.20
2023-02-01T05:07:46.778Z,2.20
2023-02-01T05:10:32.417Z,2.20
2023-02-01T05:13:36.810Z,2.30
2023-02-01T05:16:22.471Z,2.30
2023-02-01T05:19:07.854Z,2.30
2023-02-01T05:21:53.678Z,2.30
2023-02-01T05:24:39.529Z,2.30
2023-02-01T05:27:25.219Z,2.30
2023-02-01T05:30:11.459Z,2.20
2023-02-01T05:32:56.713Z,2.20
2023-02-01T05:35:42.440Z,2.20
2023-02-01T05:38:28.085Z,2.20
2023-02-01T05:41:13.913Z,2.10
2023-02-01T05:43:59.438Z,2.10
2023-02-01T05:46:45.315Z,2.10
2023-02-01T05:49:30.848Z,2.10
2023-02-01T05:52:20.267Z,2.20
2023-02-01T05:55:06.136Z,2.10
2023-02-01T05:57:51.422Z,2.10
2023-02-01T06:00:37.287Z,2.10
2023-02-01T06:03:23.018Z,2.10
2023-02-01T06:06:09.041Z,2.10
2023-02-01T06:08:54.819Z,2.10
2023-02-01T06:11:41.309Z,2.10
2023-02-01T06:14:27.343Z,2.10
2023-02-01T06:17:13.062Z,2.10
2023-02-01T06:19:58.784Z,2.00
2023-02-01T06:22:44.537Z,2.00
2023-02-01T06:25:30.333Z,2.00
2023-02-01T06:28:16.371Z,2.00
2023-02-01T06:31:07.780Z,2.00
2023-02-01T06:33:55.180Z,2.00
2023-02-01T06:36:41.140Z,2.10
2023-02-01T06:39:28.453Z,2.10
2023-02-01T06:42:14.037Z,2.10
2023-02-01T06:44:59.563Z,2.10
2023-02-01T06:47:45.434Z,2.20
2023-02-01T06:50:31.055Z,2.20
2023-02-01T06:53:17.110Z,2.20
2023-02-01T06:56:03.541Z,2.20
2023-02-01T06:58:49.655Z,2.20
2023-02-01T07:01:35.599Z,2.20
2023-02-01T07:04:21.325Z,2.20
2023-02-01T07:07:06.999Z,2.30
2023-02-01T07:09:52.610Z,2.30
2023-02-01T07:12:38.057Z,2.50
2023-02-01T07:15:26.183Z,2.50
2023-02-01T07:18:11.843Z,2.60
2023-02-01T07:20:57.839Z,2.70
2023-02-01T07:23:43.596Z,2.80
2023-02-01T07:26:29.406Z,2.90
2023-02-01T07:29:15.257Z,2.90
2023-02-01T07:32:01.585Z,3.00
2023-02-01T07:34:47.166Z,3.00
2023-02-01T07:37:33.023Z,3.10
2023-02-01T07:40:19.366Z,3.10
2023-02-01T07:43:07.000Z,3.20
2023-02-01T07:45:53.396Z,3.40
2023-02-01T07:48:39.384Z,4.40
2023-02-01T07:51:27.675Z,5.00
2023-02-01T07:54:13.258Z,5.30
2023-02-01T07:56:59.083Z,5.40
2023-02-01T08:00:03.504Z,5.60
2023-02-01T08:03:01.669Z,5.60
2023-02-01T08:05:47.100Z,5.50
2023-02-01T08:08:33.287Z,5.60
2023-02-01T08:11:18.970Z,5.80
2023-02-01T08:14:05.081Z,6.00
2023-02-01T08:25:13.199Z,6.10
2023-02-01T08:27:58.940Z,6.20
2023-02-01T08:30:44.640Z,6.20
2023-02-01T08:33:30.328Z,6.30
2023-02-01T08:36:16.103Z,6.40
2023-02-01T08:39:02.630Z,6.60
2023-02-01T08:42:08.188Z,6.60
2023-02-01T08:44:53.784Z,6.60
2023-02-01T08:47:39.450Z,6.80
2023-02-01T08:50:25.908Z,6.80
2023-02-01T08:53:13.286Z,6.80
2023-02-01T08:55:59.062Z,6.90
2023-02-01T08:58:44.835Z,7.10
2023-02-01T09:01:30.396Z,7.20
2023-02-01T09:04:16.446Z,7.40
2023-02-01T09:07:02.167Z,7.50
2023-02-01T09:09:47.562Z,7.70
2023-02-01T09:12:34.208Z,7.80
2023-02-01T09:15:19.935Z,7.90
2023-02-01T09:18:05.629Z,7.90
2023-02-01T09:20:51.304Z,8.00
2023-02-01T09:23:37.098Z,8.00
2023-02-01T09:26:31.491Z,8.20
2023-02-01T09:29:17.663Z,8.20
2023-02-01T09:32:04.559Z,8.30
2023-02-01T09:34:50.651Z,8.30
2023-02-01T09:37:37.045Z,8.40
2023-02-01T09:40:22.906Z,8.50
2023-02-01T09:43:26.174Z,8.60
2023-02-01T09:46:24.037Z,8.60
2023-02-01T09:49:19.664Z,8.80
2023-02-01T09:52:08.150Z,8.80
2023-02-01T09:54:59.479Z,9.00
2023-02-01T09:57:49.698Z,9.10
2023-02-01T10:00:37.200Z,9.30
2023-02-01T10:03:24.578Z,9.40
2023-02-01T10:06:13.048Z,9.50
2023-02-01T10:09:17.950Z,9.50
2023-02-01T10:12:03.162Z,9.60
2023-02-01T10:14:50.808Z,9.70
2023-02-01T10:17:36.719Z,9.80
2023-02-01T10:20:41.011Z,9.90
2023-02-01T10:23:35.664Z,9.90
2023-02-01T10:26:22.704Z,9.90
2023-02-01T10:29:13.210Z,9.90
2023-02-01T10:31:58.613Z,10.00
2023-02-01T10:34:47.184Z,10.10
2023-02-01T10:37:33.686Z,10.10
2023-02-01T10:40:20.765Z,10.10
2023-02-01T10:43:06.403Z,10.10
2023-02-01T10:45:52.086Z,10.20
2023-02-01T10:48:38.068Z,10.20
2023-02-01T10:51:29.354Z,10.20
2023-02-01T10:54:21.392Z,10.30
2023-02-01T10:57:25.616Z,10.30
2023-02-01T11:00:21.731Z,10.40
2023-02-01T11:03:26.434Z,10.50
2023-02-01T11:06:21.331Z,10.50
2023-02-01T11:09:06.980Z,10.50
2023-02-01T11:11:58.641Z,10.60
2023-02-01T11:14:44.065Z,10.70
2023-02-01T11:17:34.750Z,10.70
2023-02-01T11:20:33.780Z,10.80
2023-02-01T11:23:21.023Z,10.70
2023-02-01T11:26:15.227Z,10.70
2023-02-01T11:29:05.160Z,10.80
2023-02-01T11:31:51.072Z,10.80
2023-02-01T11:34:45.099Z,10.90
2023-02-01T11:37:36.021Z,10.90
2023-02-01T11:40:35.472Z,11.00
2023-02-01T11:43:28.637Z,11.00
2023-02-01T11:46:21.378Z,11.10
2023-02-01T11:49:26.740Z,11.10
2023-02-01T11:52:31.192Z,11.10
2023-02-01T11:55:19.579Z,11.20
2023-02-01T11:58:11.032Z,11.20
2023-02-01T12:01:00.919Z,11.30
2023-02-01T12:04:05.493Z,11.30
2023-02-01T12:06:54.840Z,11.30
2023-02-01T12:09:47.079Z,11.30
2023-02-01T12:12:42.303Z,11.40
2023-02-01T12:15:30.704Z,11.40
2023-02-01T12:18:33.335Z,11.50
2023-02-01T12:21:33.178Z,11.50
2023-02-01T12:24:18.690Z,11.50
2023-02-01T12:27:23.481Z,11.50
2023-02-01T12:30:15.061Z,11.60
2023-02-01T12:33:10.478Z,11.60
2023-02-01T12:36:02.192Z,11.60
2023-02-01T12:38:47.928Z,11.70
2023-02-01T12:41:36.632Z,11.70
2023-02-01T12:44:29.980Z,11.70
2023-02-01T12:47:15.365Z,11.80
2023-02-01T12:50:03.906Z,11.70
2023-02-01T12:52:53.545Z,11.80
2023-02-01T12:55:51.707Z,11.80
2023-02-01T12:58:40.513Z,11.80
2023-02-01T13:01:32.941Z,11.80
2023-02-01T13:04:26.225Z,11.90
2023-02-01T13:07:19.869Z,11.90
2023-02-01T13:10:08.974Z,11.90
2023-02-01T13:12:58.795Z,11.90
2023-02-01T13:15:49.699Z,11.90
2023-02-01T13:18:36.891Z,11.80
2023-02-01T13:21:27.515Z,11.80
2023-02-01T13:24:39.636Z,11.80
2023-02-01T13:27:27.876Z,11.70
2023-02-01T13:30:22.918Z,11.80
2023-02-01T13:33:54.447Z,11.80
2023-02-01T13:36:17.106Z,11.80
2023-02-01T13:39:18.085Z,11.80
2023-02-01T13:42:12.625Z,11.70
2023-02-01T13:45:05.234Z,11.70
2023-02-01T13:47:54.130Z,11.80
2023-02-01T13:50:42.114Z,11.80
2023-02-01T13:53:29.917Z,11.80
2023-02-01T13:56:18.980Z,11.80
2023-02-01T13:59:24.541Z,11.80
2023-02-01T14:02:28.739Z,11.80
2023-02-01T14:05:23.959Z,11.80
2023-02-01T14:08:11.978Z,11.80
2023-02-01T14:10:57.940Z,11.80
2023-02-01T14:13:43.342Z,11.80
2023-02-01T14:16:29.110Z,11.80
2023-02-01T14:19:22.744Z,11.80
2023-02-01T14:22:37.666Z,11.80
2023-02-01T14:25:23.603Z,11.70
2023-02-01T14:28:29.138Z,11.70
2023-02-01T14:31:17.135Z,11.70
2023-02-01T14:34:12.781Z,11.80
2023-02-01T14:37:00.229Z,11.80
2023-02-01T14:39:45.818Z,11.80
2023-02-01T14:42:34.669Z,11.70
2023-02-01T14:45:24.110Z,11.70
2023-02-01T14:48:09.952Z,11.70
2023-02-01T14:50:58.645Z,11.70
2023-02-01T14:53:45.099Z,11.70
2023-02-01T14:56:32.179Z,11.70
2023-02-01T14:59:21.669Z,11.70
2023-02-01T15:02:18.936Z,11.60
2023-02-01T15:05:15.674Z,11.50
2023-02-01T15:08:05.195Z,11.50
2023-02-01T15:10:52.461Z,11.50
2023-02-01T15:13:38.077Z,11.40
2023-02-01T15:16:25.409Z,11.40
2023-02-01T15:19:13.998Z,11.40
2023-02-01T15:21:59.664Z,11.30
2023-02-01T15:24:45.107Z,11.30
2023-02-01T15:27:31.968Z,11.30
2023-02-01T15:30:23.179Z,11.30
2023-02-01T15:33:15.009Z,11.20
2023-02-01T15:36:06.586Z,11.20
2023-02-01T15:39:12.345Z,11.20
2023-02-01T15:41:59.365Z,11.20
2023-02-01T15:44:47.089Z,11.10
2023-02-01T15:47:33.788Z,11.10
2023-02-01T15:50:22.156Z,11.00
2023-02-01T15:53:14.193Z,11.00
2023-02-01T15:56:01.965Z,10.90
2023-02-01T15:58:48.698Z,10.90
2023-02-01T16:01:38.043Z,10.80
2023-02-01T16:04:27.802Z,10.80
2023-02-01T16:07:28.097Z,10.80
2023-02-01T16:10:24.279Z,10.70
2023-02-01T16:13:09.928Z,10.60
2023-02-01T16:15:55.575Z,10.60
2023-02-01T16:18:41.836Z,10.60
2023-02-01T16:21:27.343Z,10.50
2023-02-01T16:24:12.843Z,10.50
2023-02-01T16:26:59.005Z,10.40
2023-02-01T16:29:44.499Z,10.30
2023-02-01T16:32:30.934Z,10.30
2023-02-01T16:35:20.741Z,10.20
2023-02-01T16:38:13.216Z,10.10
2023-02-01T16:41:00.262Z,10.00
2023-02-01T16:43:46.028Z,9.90
2023-02-01T16:46:33.703Z,9.80
2023-02-01T16:49:23.821Z,9.70
2023-02-01T16:52:12.931Z,9.60
2023-02-01T16:54:58.218Z,9.50
2023-02-01T16:57:43.723Z,9.40
2023-02-01T17:00:31.994Z,9.40
2023-02-01T17:03:20.059Z,9.30
2023-02-01T17:06:05.747Z,9.20
2023-02-01T17:08:52.402Z,9.10
2023-02-01T17:11:38.694Z,9.00
2023-02-01T17:14:25.643Z,9.00
2023-02-01T17:17:11.438Z,8.90
2023-02-01T17:19:57.157Z,8.80
2023-02-01T17:22:42.997Z,8.80
2023-02-01T17:25:31.747Z,8.70
2023-02-01T17:28:17.626Z,8.70
2023-02-01T17:31:03.522Z,8.60
2023-02-01T17:33:49.088Z,8.50
2023-02-01T17:36:36.520Z,8.40
2023-02-01T17:39:40.858Z,8.30
2023-02-01T17:42:27.350Z,8.20
2023-02-01T17:45:27.191Z,8.10
2023-02-01T17:48:14.202Z,8.00
2023-02-01T17:51:01.538Z,7.90
2023-02-01T17:53:47.296Z,7.80
2023-02-01T17:56:32.712Z,7.70
2023-02-01T17:59:19.302Z,7.70
2023-02-01T18:02:09.813Z,7.60
2023-02-01T18:04:55.676Z,7.60
2023-02-01T18:07:41.437Z,7.50
2023-02-01T18:10:26.706Z,7.50
2023-02-01T18:13:12.833Z,7.40
2023-02-01T18:16:02.062Z,7.40
2023-02-01T18:18:48.036Z,7.40
2023-02-01T18:21:35.043Z,7.30
2023-02-01T18:24:23.410Z,7.20
2023-02-01T18:27:08.862Z,7.20
2023-02-01T18:29:54.330Z,7.10
2023-02-01T18:32:40.198Z,7.00
2023-02-01T18:35:27.251Z,7.00
2023-02-01T18:38:12.741Z,6.90
2023-02-01T18:40:58.422Z,6.90
2023-02-01T18:43:43.703Z,6.80
2023-02-01T18:46:29.083Z,6.80
2023-02-01T18:49:18.012Z,6.70
2023-02-01T18:52:03.386Z,6.70
2023-02-01T18:54:59.454Z,6.60
2023-02-01T18:57:45.539Z,6.70
2023-02-01T19:00:30.930Z,6.60
2023-02-01T19:03:16.702Z,6.60
2023-02-01T19:06:02.189Z,6.60
2023-02-01T19:08:48.674Z,6.60
2023-02-01T19:11:34.111Z,6.50
2023-02-01T19:14:19.987Z,6.40
2023-02-01T19:17:05.657Z,6.40
2023-02-01T19:19:51.552Z,6.40
2023-02-01T19:22:37.418Z,6.40
2023-02-01T19:25:24.873Z,6.30
2023-02-01T19:28:11.075Z,6.30
2023-02-01T19:31:07.377Z,6.30
2023-02-01T19:33:54.285Z,6.30
2023-02-01T19:36:42.647Z,6.20
2023-02-01T19:39:28.315Z,6.20
2023-02-01T19:42:14.138Z,6.20
2023-02-01T19:44:59.899Z,6.10
2023-02-01T19:47:45.465Z,6.10
2023-02-01T19:50:31.455Z,6.10
2023-02-01T19:53:19.115Z,6.10
2023-02-01T19:56:04.814Z,6.00
2023-02-01T19:58:51.383Z,6.00
2023-02-01T20:01:37.977Z,6.00
2023-02-01T20:04:24.114Z,6.00
2023-02-01T20:07:11.069Z,6.00
2023-02-01T20:09:56.697Z,6.00
2023-02-01T20:12:44.499Z,6.00
2023-02-01T20:15:30.421Z,6.10
2023-02-01T20:18:15.951Z,6.10
2023-02-01T20:21:01.779Z,6.20
2023-02-01T20:23:48.175Z,6.20
2023-02-01T20:26:34.783Z,6.30
2023-02-01T20:29:22.863Z,6.20
2023-02-01T20:32:08.686Z,6.20
2023-02-01T20:34:54.495Z,6.20
2023-02-01T20:37:42.678Z,6.10
2023-02-01T20:40:28.465Z,6.00
2023-02-01T20:43:13.838Z,6.00
2023-02-01T20:45:59.661Z,5.90
2023-02-01T20:48:46.007Z,5.90
2023-02-01T20:51:31.571Z,5.90
2023-02-01T20:54:17.046Z,5.80
2023-02-01T20:57:02.782Z,5.90
2023-02-01T20:59:49.304Z,5.90
2023-02-01T21:02:34.661Z,6.00
2023-02-01T21:05:20.517Z,6.00
2023-02-01T21:08:08.183Z,6.10
2023-02-01T21:10:59.293Z,6.10
2023-02-01T21:13:50.533Z,6.10
2023-02-01T21:16:35.930Z,6.00
2023-02-01T21:19:23.738Z,5.90
2023-02-01T21:22:09.753Z,5.90
2023-02-01T21:24:55.296Z,5.70
2023-02-01T21:27:41.081Z,5.70
2023-02-01T21:30:26.880Z,5.50
2023-02-01T21:33:12.696Z,5.50
2023-02-01T21:35:59.056Z,5.50
2023-02-01T21:38:52.251Z,5.50
2023-02-01T21:41:56.782Z,5.60
2023-02-01T21:44:42.536Z,5.70
2023-02-01T21:47:28.370Z,5.80
2023-02-01T21:50:15.363Z,5.90
2023-02-01T21:53:01.063Z,5.80
2023-02-01T21:55:46.785Z,5.80
2023-02-01T21:58:34.717Z,5.70
2023-02-01T22:01:20.259Z,5.70
2023-02-01T22:04:06.580Z,5.60
2023-02-01T22:06:52.156Z,5.60
2023-02-01T22:09:38.277Z,5.50
2023-02-01T22:12:23.641Z,5.40
2023-02-01T22:15:09.069Z,5.30
2023-02-01T22:17:55.350Z,5.20
2023-02-01T22:20:40.701Z,5.10
2023-02-01T22:23:27.917Z,5.00
2023-02-01T22:26:14.373Z,4.90
2023-02-01T22:28:59.782Z,4.90
2023-02-01T22:31:45.507Z,4.90
2023-02-01T22:34:30.878Z,4.90
2023-02-01T22:37:16.698Z,4.80
2023-02-01T22:40:04.566Z,4.80
2023-02-01T22:42:51.205Z,4.80
2023-02-01T22:45:37.605Z,4.80
2023-02-01T22:48:22.951Z,4.80
2023-02-01T22:51:13.294Z,4.80
2023-02-01T22:53:59.288Z,4.70
2023-02-01T22:56:45.032Z,4.70
2023-02-01T22:59:30.595Z,4.60
2023-02-01T23:02:16.315Z,4.60
2023-02-01T23:05:02.252Z,4.60
2023-02-01T23:07:49.022Z,4.50
2023-02-01T23:10:34.876Z,4.50
2023-02-01T23:13:20.250Z,4.40
2023-02-01T23:16:11.283Z,4.30
2023-02-01T23:18:56.802Z,4.30
2023-02-01T23:21:42.589Z,4.30
2023-02-01T23:24:27.938Z,4.30
2023-02-01T23:27:13.342Z,4.20
2023-02-01T23:29:58.942Z,4.20
2023-02-01T23:32:44.782Z,4.20
2023-02-01T23:35:30.726Z,4.10
2023-02-01T23:38:16.198Z,4.10
2023-02-01T23:41:06.129Z,4.10
2023-02-01T23:44:00.893Z,4.20
2023-02-01T23:46:49.316Z,4.20
2023-02-01T23:49:35.260Z,4.20
2023-02-01T23:52:20.785Z,4.10
2023-02-01T23:55:06.353Z,4.10
2023-02-01T23:57:51.803Z,4.10
